Liberty, Kansas
Current Conditions -  °F | °C
As of 11:52 PM on Wednesday 22 Oct 2014 (Local Time) from KCFV Reporting Station
Clear Clear  
Wind Chill: 63°   Ceiling: Unl
Heat Index: 63°   Visibility: 10mi
Dew Point: 57°   Wind: 6mph
Humidity: 81%   Direction: 150°SSE
Pressure: 30.11"   Gusts: NA
Location:  37.16°N, 95.59°W
Report Text: KCFV 230452Z AUTO 15005KT 10SM CLR 17/14 A3011 RMK AO2 SLP193 T01720139
Loading
Personal Weather Stations






























Interactive Weather Map
Tropical Storm Tracking
New forecast layout! Learn more

10-Day Weather Forecast

Advertisements
Track Severe Weather on mobile